Time;durP1;ratioP1;P1;durP2;ratioP2;P2;SDS_P1;SDS_P2;PMS_P1;PMS_P2;Temp;Humidity;BMP_temperature;BMP_pressure;BME280_temperature;BME280_humidity;BME280_pressure;Samples;Min_cycle;Max_cycle;Signal;HPM_P1;HPM_P2
2023/04/02 00:04:40;;;;;;;0.40;0.40;;;;;;;;;;4876035;29;20271;-31
2023/04/02 00:07:37;;;;;;;1.00;0.30;;;;;;;;;;4858138;29;20251;-38
2023/04/02 00:13:54;;;;;;;0.43;0.40;;;;;;;;;;4890375;29;20234;-37
2023/04/02 00:20:26;;;;;;;;;;;;;;;;;;;;;
2023/04/02 00:25:57;;;;;;;0.50;0.50;;;;;;;;;;5009786;23;20261;-26
2023/04/02 00:28:25;;;;;;;0.40;0.40;;;;;;;;;;5015702;28;20212;-30
2023/04/02 00:30:53;;;;;;;0.40;0.40;;;;;;;;;;5016308;28;20226;-25
2023/04/02 00:33:21;;;;;;;0.33;0.33;;;;;;;;;;5014647;28;20242;-26
2023/04/02 00:35:49;;;;;;;0.50;0.50;;;;;;;;;;5007125;28;20203;-27
2023/04/02 00:38:20;;;;;;;1.23;0.60;;;;;;;;;;5004633;28;20223;-28
2023/04/02 00:40:48;;;;;;;0.60;0.57;;;;;;;;;;5003092;28;20206;-26
2023/04/02 00:43:17;;;;;;;0.83;0.50;;;;;;;;;;5006925;28;20238;-26
2023/04/02 00:45:49;;;;;;;0.97;0.53;;;;;;;;;;5000602;28;20208;-24
2023/04/02 00:48:22;;;;;;;0.40;0.40;;;;;;;;;;5012483;28;20312;-26
2023/04/02 00:50:51;;;;;;;0.57;0.57;;;;;;;;;;5003483;28;20207;-27
2023/04/02 00:53:22;;;;;;;0.80;0.70;;;;;;;;;;4999768;28;20223;-26
2023/04/02 00:55:49;;;;;;;3.93;0.83;;;;;;;;;;5016024;28;20191;-27
2023/04/02 00:58:23;;;;;;;0.60;0.60;;;;;;;;;;5007554;28;20199;-26
2023/04/02 01:00:51;;;;;;;0.90;0.53;;;;;;;;;;5000782;28;20203;-27
2023/04/02 01:03:33;;;;;;;1.20;0.77;;;;;;;;;;5012152;28;20326;-27
2023/04/02 01:06:02;;;;;;;0.50;0.50;;;;;;;;;;4998535;28;20202;-25
2023/04/02 01:08:33;;;;;;;0.50;0.50;;;;;;;;;;5005112;28;20900;-27
2023/04/02 01:11:03;;;;;;;0.73;0.60;;;;;;;;;;5001325;28;20309;-25
2023/04/02 01:13:34;;;;;;;0.43;0.43;;;;;;;;;;5009475;28;20227;-26
2023/04/02 01:16:03;;;;;;;0.60;0.60;;;;;;;;;;4999557;28;20200;-27
2023/04/02 01:18:49;;;;;;;0.97;0.60;;;;;;;;;;5010722;28;20214;-26
2023/04/02 01:21:20;;;;;;;3.30;0.50;;;;;;;;;;5001627;28;20223;-26
2023/04/02 01:23:53;;;;;;;0.50;0.50;;;;;;;;;;4999487;28;20227;-27
2023/04/02 01:26:26;;;;;;;0.50;0.43;;;;;;;;;;5000883;28;20220;-28
2023/04/02 01:29:01;;;;;;;0.70;0.60;;;;;;;;;;5007842;28;20226;-27
2023/04/02 01:31:29;;;;;;;1.57;0.50;;;;;;;;;;5013409;28;20205;-25
2023/04/02 01:33:57;;;;;;;1.33;0.50;;;;;;;;;;5027267;28;20239;-26
2023/04/02 01:36:27;;;;;;;0.30;0.30;;;;;;;;;;5010544;28;20207;-27
2023/04/02 01:38:58;;;;;;;0.20;0.20;;;;;;;;;;5009020;28;20460;-28
2023/04/02 01:41:29;;;;;;;1.07;0.40;;;;;;;;;;4998279;28;20340;-27
2023/04/02 01:43:58;;;;;;;0.80;0.57;;;;;;;;;;5001176;28;20227;-27
2023/04/02 01:46:28;;;;;;;2.50;0.80;;;;;;;;;;5011592;28;20299;-29
2023/04/02 01:48:56;;;;;;;0.57;0.57;;;;;;;;;;5014886;28;20214;-26
2023/04/02 01:51:27;;;;;;;0.60;0.60;;;;;;;;;;5007761;28;20213;-35
2023/04/02 01:53:55;;;;;;;0.50;0.50;;;;;;;;;;5000512;28;20227;-39
2023/04/02 01:56:22;;;;;;;0.30;0.30;;;;;;;;;;5009448;28;20294;-42
2023/04/02 01:58:50;;;;;;;0.50;0.50;;;;;;;;;;5008781;28;20229;-37
2023/04/02 02:01:18;;;;;;;0.40;0.40;;;;;;;;;;5000922;28;20265;-38
2023/04/02 02:03:47;;;;;;;0.67;0.50;;;;;;;;;;5007317;28;20223;-37
2023/04/02 02:06:15;;;;;;;0.47;0.47;;;;;;;;;;5008226;28;20284;-34
2023/04/02 02:08:46;;;;;;;1.77;0.40;;;;;;;;;;4999310;28;20234;-36
2023/04/02 02:11:15;;;;;;;0.83;0.60;;;;;;;;;;5008821;28;20204;-36
2023/04/02 02:13:46;;;;;;;0.60;0.60;;;;;;;;;;5008650;28;20226;-41
2023/04/02 02:16:17;;;;;;;0.40;0.40;;;;;;;;;;5008754;28;20290;-36
2023/04/02 02:18:45;;;;;;;0.70;0.43;;;;;;;;;;5013038;28;20215;-30
2023/04/02 02:21:16;;;;;;;0.40;0.40;;;;;;;;;;5007617;28;20204;-35
2023/04/02 02:23:44;;;;;;;0.50;0.50;;;;;;;;;;5007649;28;20232;-33
2023/04/02 02:26:13;;;;;;;0.43;0.40;;;;;;;;;;4999378;28;20430;-35
2023/04/02 02:28:41;;;;;;;0.40;0.40;;;;;;;;;;5005963;28;20213;-37
2023/04/02 02:31:16;;;;;;;0.40;0.40;;;;;;;;;;5007825;28;20213;-35
2023/04/02 02:33:46;;;;;;;2.47;0.37;;;;;;;;;;5013392;28;20216;-33
2023/04/02 02:36:17;;;;;;;0.60;0.60;;;;;;;;;;5003217;28;20253;-40
2023/04/02 02:38:49;;;;;;;1.53;1.20;;;;;;;;;;5007131;28;20211;-34
2023/04/02 02:41:18;;;;;;;0.80;0.50;;;;;;;;;;5007791;28;20567;-35
2023/04/02 02:43:49;;;;;;;0.30;0.30;;;;;;;;;;5011467;28;20248;-36
2023/04/02 02:46:18;;;;;;;0.73;0.50;;;;;;;;;;5013689;28;20595;-37
2023/04/02 02:48:46;;;;;;;0.50;0.50;;;;;;;;;;5006935;28;20195;-37
2023/04/02 02:51:19;;;;;;;0.50;0.50;;;;;;;;;;5007644;28;20311;-30
2023/04/02 02:53:47;;;;;;;0.40;0.40;;;;;;;;;;5005850;28;20227;-40
2023/04/02 02:56:14;;;;;;;0.67;0.50;;;;;;;;;;5005839;28;20242;-31
2023/04/02 02:58:41;;;;;;;2.33;0.63;;;;;;;;;;5007837;28;20199;-38
2023/04/02 03:01:08;;;;;;;1.23;0.57;;;;;;;;;;4997725;28;20249;-36
2023/04/02 03:03:36;;;;;;;0.83;0.70;;;;;;;;;;5005460;28;20235;-34
2023/04/02 03:06:04;;;;;;;0.67;0.67;;;;;;;;;;5007029;28;20213;-32
2023/04/02 03:08:36;;;;;;;1.10;1.00;;;;;;;;;;5002790;28;20361;-35
2023/04/02 03:11:06;;;;;;;0.40;0.40;;;;;;;;;;4999843;28;20207;-40
2023/04/02 03:13:34;;;;;;;0.50;0.50;;;;;;;;;;5005918;28;20215;-34
2023/04/02 03:16:04;;;;;;;0.40;0.40;;;;;;;;;;5002011;28;20315;-38
2023/04/02 03:18:35;;;;;;;1.70;0.50;;;;;;;;;;5012435;28;20222;-32
2023/04/02 03:21:06;;;;;;;0.50;0.40;;;;;;;;;;5006334;28;20211;-36
2023/04/02 03:23:37;;;;;;;0.77;0.57;;;;;;;;;;5000746;28;20230;-34
2023/04/02 03:26:07;;;;;;;2.67;0.60;;;;;;;;;;5005879;28;20289;-35
2023/04/02 03:28:37;;;;;;;0.60;0.60;;;;;;;;;;5006596;28;20200;-40
2023/04/02 03:31:06;;;;;;;0.43;0.43;;;;;;;;;;5005202;28;20203;-36
2023/04/02 03:33:35;;;;;;;0.30;0.30;;;;;;;;;;5013550;28;20227;-34
2023/04/02 03:36:05;;;;;;;0.70;0.70;;;;;;;;;;5006080;28;20211;-33
2023/04/02 03:38:33;;;;;;;1.30;0.50;;;;;;;;;;5006171;28;20287;-32
2023/04/02 03:41:04;;;;;;;1.40;0.30;;;;;;;;;;5001319;28;20203;-34
2023/04/02 03:43:32;;;;;;;1.07;0.50;;;;;;;;;;5011916;28;20318;-36
2023/04/02 03:46:03;;;;;;;0.50;0.50;;;;;;;;;;5000275;28;20243;-35
2023/04/02 03:48:35;;;;;;;0.33;0.33;;;;;;;;;;5013738;28;20208;-39
2023/04/02 03:51:05;;;;;;;0.70;0.60;;;;;;;;;;5005763;28;20534;-38
2023/04/02 03:53:32;;;;;;;0.80;0.53;;;;;;;;;;5004341;28;20219;-34
2023/04/02 03:56:01;;;;;;;0.40;0.40;;;;;;;;;;4995023;28;20217;-38
2023/04/02 03:58:33;;;;;;;0.40;0.40;;;;;;;;;;5005505;28;20205;-29
2023/04/02 04:01:04;;;;;;;0.30;0.30;;;;;;;;;;5001665;28;20209;-38
2023/04/02 04:03:33;;;;;;;0.60;0.57;;;;;;;;;;5013502;28;20325;-37
2023/04/02 04:06:01;;;;;;;0.47;0.40;;;;;;;;;;5005413;28;20218;-34
2023/04/02 04:08:31;;;;;;;0.50;0.50;;;;;;;;;;5004048;28;20233;-38
2023/04/02 04:11:00;;;;;;;2.03;0.70;;;;;;;;;;5003519;28;20230;-38
2023/04/02 04:13:31;;;;;;;0.87;0.50;;;;;;;;;;5004649;28;20304;-33
2023/04/02 04:16:01;;;;;;;0.50;0.50;;;;;;;;;;5005756;28;20203;-37
2023/04/02 04:18:33;;;;;;;0.37;0.37;;;;;;;;;;5008396;28;20245;-36
2023/04/02 04:21:02;;;;;;;0.40;0.40;;;;;;;;;;5006860;28;20203;-31
2023/04/02 04:23:30;;;;;;;0.40;0.40;;;;;;;;;;5005242;28;20234;-38
2023/04/02 04:26:00;;;;;;;0.63;0.60;;;;;;;;;;5000392;28;20207;-34
2023/04/02 04:28:31;;;;;;;0.57;0.57;;;;;;;;;;5004993;28;20265;-38
2023/04/02 04:31:03;;;;;;;1.47;0.50;;;;;;;;;;5003787;28;20253;-40
2023/04/02 04:33:33;;;;;;;0.83;0.70;;;;;;;;;;5010912;28;20262;-32
2023/04/02 04:36:00;;;;;;;0.60;0.60;;;;;;;;;;5005657;28;20230;-32
2023/04/02 04:38:31;;;;;;;0.47;0.47;;;;;;;;;;5004466;28;20302;-32
2023/04/02 04:41:01;;;;;;;0.80;0.80;;;;;;;;;;4999734;28;20207;-30
2023/04/02 04:43:33;;;;;;;0.50;0.50;;;;;;;;;;5004693;28;20311;-35
2023/04/02 04:46:03;;;;;;;1.47;0.50;;;;;;;;;;5004356;28;20222;-34
2023/04/02 04:48:35;;;;;;;0.70;0.70;;;;;;;;;;5012897;28;20211;-37
2023/04/02 04:51:03;;;;;;;0.70;0.50;;;;;;;;;;5004515;28;20203;-37
2023/04/02 04:53:31;;;;;;;0.60;0.50;;;;;;;;;;5003305;28;20581;-34
2023/04/02 04:56:01;;;;;;;0.47;0.43;;;;;;;;;;5001851;28;20207;-35
2023/04/02 04:58:32;;;;;;;0.50;0.50;;;;;;;;;;5004751;28;20222;-34
2023/04/02 05:01:04;;;;;;;1.03;0.57;;;;;;;;;;4997651;28;20254;-35
2023/04/02 05:03:34;;;;;;;0.53;0.53;;;;;;;;;;5004584;28;20235;-38
2023/04/02 05:06:04;;;;;;;0.93;0.70;;;;;;;;;;5009678;28;20227;-37
2023/04/02 05:08:33;;;;;;;0.70;0.60;;;;;;;;;;5005306;28;20207;-38
2023/04/02 05:11:02;;;;;;;0.80;0.80;;;;;;;;;;5006302;28;20290;-41
2023/04/02 05:13:31;;;;;;;0.40;0.40;;;;;;;;;;5011750;28;20302;-38
2023/04/02 05:16:03;;;;;;;0.50;0.50;;;;;;;;;;5005720;28;20490;-34
2023/04/02 05:18:34;;;;;;;0.67;0.47;;;;;;;;;;5008569;28;20320;-32
2023/04/02 05:21:06;;;;;;;0.93;0.90;;;;;;;;;;5008557;28;20504;-34
2023/04/02 05:23:35;;;;;;;0.90;0.50;;;;;;;;;;5008458;28;20241;-36
2023/04/02 05:26:04;;;;;;;0.67;0.60;;;;;;;;;;5005732;28;20207;-35
2023/04/02 05:28:35;;;;;;;0.50;0.50;;;;;;;;;;5011429;28;20207;-33
2023/04/02 05:31:04;;;;;;;0.50;0.50;;;;;;;;;;5011701;28;20205;-32
2023/04/02 05:33:33;;;;;;;0.87;0.50;;;;;;;;;;5011768;28;20219;-33
2023/04/02 05:36:02;;;;;;;0.67;0.67;;;;;;;;;;5012904;28;20202;-36
2023/04/02 05:38:30;;;;;;;0.77;0.70;;;;;;;;;;5012745;28;20203;-36
2023/04/02 05:41:00;;;;;;;1.90;0.70;;;;;;;;;;5007212;28;20203;-36
2023/04/02 05:43:28;;;;;;;0.60;0.60;;;;;;;;;;5014048;28;20232;-33
2023/04/02 05:45:57;;;;;;;1.13;0.60;;;;;;;;;;5012253;28;20274;-33
2023/04/02 05:48:28;;;;;;;1.80;0.93;;;;;;;;;;5015207;28;20211;-35
2023/04/02 05:50:58;;;;;;;1.23;0.70;;;;;;;;;;5015909;28;20282;-31
2023/04/02 05:53:27;;;;;;;0.60;0.60;;;;;;;;;;5013769;28;20227;-39
2023/04/02 05:55:57;;;;;;;1.60;0.60;;;;;;;;;;5014277;28;20199;-35
2023/04/02 05:58:28;;;;;;;1.63;0.73;;;;;;;;;;5016336;28;20319;-36
2023/04/02 06:01:01;;;;;;;1.10;0.70;;;;;;;;;;5007156;28;20208;-31
2023/04/02 06:03:32;;;;;;;0.63;0.53;;;;;;;;;;5010960;28;20558;-37
2023/04/02 06:06:04;;;;;;;0.60;0.60;;;;;;;;;;5010293;28;20227;-33
2023/04/02 06:08:35;;;;;;;0.60;0.60;;;;;;;;;;5010936;28;20207;-35
2023/04/02 06:11:06;;;;;;;1.50;0.87;;;;;;;;;;5011444;28;20221;-37
2023/04/02 06:13:33;;;;;;;0.70;0.70;;;;;;;;;;5008441;28;20305;-32
2023/04/02 06:16:01;;;;;;;2.00;0.80;;;;;;;;;;5005137;28;20214;-35
2023/04/02 06:18:29;;;;;;;0.80;0.67;;;;;;;;;;5010819;28;20241;-35
2023/04/02 06:20:56;;;;;;;0.60;0.60;;;;;;;;;;5011353;28;20204;-32
2023/04/02 06:23:29;;;;;;;0.50;0.50;;;;;;;;;;5008186;28;20228;-37
2023/04/02 06:29:36;;;;;;;;;;;;;;;;;;;;;
2023/04/02 06:32:17;;;;;;;0.70;0.70;;;;;;;;;;4956701;28;20224;-28
2023/04/02 06:40:47;;;;;;;1.00;0.80;;;;;;;;;;4954184;28;20280;-26
2023/04/02 06:46:28;;;;;;;0.80;0.80;;;;;;;;;;4942836;28;20213;-27
2023/04/02 06:49:44;;;;;;;1.03;0.70;;;;;;;;;;4987047;28;20214;-28
2023/04/02 06:52:27;;;;;;;0.93;0.93;;;;;;;;;;5033755;28;20215;-29
2023/04/02 06:55:04;;;;;;;1.13;0.80;;;;;;;;;;5032678;28;20209;-27
2023/04/02 07:06:59;;;;;;;1.90;1.07;;;;;;;;;;5033091;28;20679;-29
2023/04/02 07:10:07;;;;;;;1.87;0.70;;;;;;;;;;5030705;28;20203;-28
2023/04/02 07:22:19;;;;;;;1.97;0.70;;;;;;;;;;5011509;28;20263;-28
2023/04/02 07:33:09;;;;;;;0.83;0.80;;;;;;;;;;4985923;28;20321;-40
2023/04/02 07:35:42;;;;;;;1.23;0.60;;;;;;;;;;4973219;28;20204;-39
2023/04/02 07:38:20;;;;;;;0.67;0.67;;;;;;;;;;4973762;28;20219;-37
2023/04/02 07:40:56;;;;;;;1.67;0.80;;;;;;;;;;4973221;28;20209;-33
2023/04/02 07:43:38;;;;;;;1.40;0.80;;;;;;;;;;4973606;28;20248;-34
2023/04/02 07:46:17;;;;;;;0.73;0.73;;;;;;;;;;4964690;28;20204;-38
2023/04/02 07:48:50;;;;;;;0.60;0.60;;;;;;;;;;4973063;28;20219;-35
2023/04/02 07:51:25;;;;;;;1.07;0.70;;;;;;;;;;4973597;28;20209;-36
2023/04/02 07:54:05;;;;;;;1.80;1.03;;;;;;;;;;4973617;28;20232;-37
2023/04/02 07:56:45;;;;;;;1.30;0.83;;;;;;;;;;4973434;28;20270;-36
2023/04/02 08:20:09;;;;;;;1.50;1.10;;;;;;;;;;4971460;28;20196;-33
2023/04/02 08:34:08;;;;;;;1.43;0.90;;;;;;;;;;4991566;28;20242;-36
2023/04/02 08:52:36;;;;;;;0.80;0.80;;;;;;;;;;5002847;28;20696;-37
2023/04/02 08:55:31;;;;;;;2.73;0.80;;;;;;;;;;5014396;28;20216;-35
2023/04/02 08:58:56;;;;;;;1.00;0.80;;;;;;;;;;4976676;28;20215;-33
2023/04/02 09:04:54;;;;;;;1.23;0.97;;;;;;;;;;5015468;28;20270;-35
2023/04/02 09:16:49;;;;;;;0.60;0.60;;;;;;;;;;5010510;28;20214;-37
2023/04/02 09:19:46;;;;;;;0.97;0.80;;;;;;;;;;4991819;28;20232;-35
2023/04/02 09:22:24;;;;;;;1.10;1.00;;;;;;;;;;5015050;28;20203;-33
2023/04/02 09:25:13;;;;;;;0.87;0.80;;;;;;;;;;5008958;28;20226;-35
2023/04/02 09:51:30;;;;;;;2.33;0.90;;;;;;;;;;5068941;28;20209;-34
2023/04/02 09:54:26;;;;;;;1.10;1.00;;;;;;;;;;5067016;28;20370;-33
2023/04/02 10:09:26;;;;;;;1.30;0.80;;;;;;;;;;4943051;28;20219;-38
2023/04/02 10:18:45;;;;;;;1.50;0.70;;;;;;;;;;4809653;29;20225;-32
2023/04/02 10:24:28;;;;;;;1.17;0.70;;;;;;;;;;5114706;27;20307;-38
2023/04/02 10:27:21;;;;;;;1.03;0.70;;;;;;;;;;5103740;28;20212;-37
2023/04/02 10:33:02;;;;;;;1.13;0.80;;;;;;;;;;5026611;28;20285;-33
2023/04/02 10:45:23;;;;;;;0.80;0.80;;;;;;;;;;5007331;28;20250;-35
2023/04/02 10:48:23;;;;;;;;;;;;;;;;;;;;;
2023/04/02 10:51:13;;;;;;;0.87;0.87;;;;;;;;;;4986257;28;20216;-36
2023/04/02 10:54:11;;;;;;;;;;;;;;;;;;;;;
2023/04/02 10:56:53;;;;;;;0.90;0.90;;;;;;;;;;4985673;28;20209;-38
2023/04/02 11:08:54;;;;;;;0.70;0.70;;;;;;;;;;5015117;28;20214;-37
2023/04/02 11:11:48;;;;;;;;;;;;;;;;;;;;;
2023/04/02 11:33:18;;;;;;;0.57;0.57;;;;;;;;;;4963697;28;20279;-41
2023/04/02 11:48:08;;;;;;;0.90;0.90;;;;;;;;;;5000300;28;20353;-35
2023/04/02 11:51:03;;;;;;;1.70;0.87;;;;;;;;;;4976654;28;20213;-37
2023/04/02 11:59:24;;;;;;;1.43;0.60;;;;;;;;;;4988497;28;20247;-34
2023/04/02 12:29:37;;;;;;;0.90;0.63;;;;;;;;;;5026160;28;20227;-41
2023/04/02 12:32:10;;;;;;;2.37;0.73;;;;;;;;;;5022612;28;20286;-39
2023/04/02 12:34:37;;;;;;;0.67;0.60;;;;;;;;;;5030015;28;20227;-40
2023/04/02 12:37:05;;;;;;;1.13;0.80;;;;;;;;;;5030657;28;20236;-40
2023/04/02 12:39:33;;;;;;;1.23;0.60;;;;;;;;;;5024684;28;20242;-41
2023/04/02 12:42:00;;;;;;;0.53;0.53;;;;;;;;;;5024643;28;20294;-44
2023/04/02 12:44:29;;;;;;;1.33;0.70;;;;;;;;;;5028650;28;20310;-41
2023/04/02 12:46:58;;;;;;;0.60;0.60;;;;;;;;;;5018558;28;20229;-43
2023/04/02 12:49:50;;;;;;;0.60;0.60;;;;;;;;;;5020286;28;20209;-42
2023/04/02 12:52:21;;;;;;;0.83;0.70;;;;;;;;;;5025522;28;20282;-42
2023/04/02 12:54:49;;;;;;;1.03;0.70;;;;;;;;;;5025675;28;20210;-37
2023/04/02 12:57:20;;;;;;;0.57;0.50;;;;;;;;;;5021261;28;20671;-40
2023/04/02 12:59:48;;;;;;;0.87;0.53;;;;;;;;;;5021332;28;20714;-40
2023/04/02 13:02:19;;;;;;;0.80;0.80;;;;;;;;;;5019528;28;20210;-42
2023/04/02 13:04:49;;;;;;;0.70;0.70;;;;;;;;;;5020606;28;20199;-38
2023/04/02 13:07:17;;;;;;;1.63;1.07;;;;;;;;;;5028426;28;20238;-41
2023/04/02 13:09:47;;;;;;;1.17;0.60;;;;;;;;;;5025383;28;20214;-40
2023/04/02 13:12:35;;;;;;;0.60;0.60;;;;;;;;;;5017422;28;20821;-39
2023/04/02 13:15:03;;;;;;;1.00;0.70;;;;;;;;;;5020222;28;20290;-43
2023/04/02 13:17:38;;;;;;;0.43;0.43;;;;;;;;;;5024836;28;20234;-39
2023/04/02 13:20:24;;;;;;;1.17;0.53;;;;;;;;;;5023718;28;20654;-40
2023/04/02 13:22:51;;;;;;;1.80;0.40;;;;;;;;;;5023851;28;20266;-41
2023/04/02 13:25:18;;;;;;;0.40;0.40;;;;;;;;;;5018442;28;20209;-38
2023/04/02 13:27:45;;;;;;;0.97;0.40;;;;;;;;;;5023834;28;20229;-41
2023/04/02 13:30:20;;;;;;;0.40;0.40;;;;;;;;;;5024886;28;20210;-40
2023/04/02 13:32:49;;;;;;;0.40;0.40;;;;;;;;;;5025216;28;20222;-37
2023/04/02 13:35:17;;;;;;;1.97;0.30;;;;;;;;;;5024796;28;20203;-39
2023/04/02 13:37:44;;;;;;;0.53;0.33;;;;;;;;;;5016089;28;20310;-42
2023/04/02 13:40:13;;;;;;;0.40;0.40;;;;;;;;;;5021961;28;20211;-43
2023/04/02 13:42:41;;;;;;;0.33;0.33;;;;;;;;;;5022301;28;20230;-39
2023/04/02 13:45:17;;;;;;;0.30;0.30;;;;;;;;;;5022299;28;20294;-40
2023/04/02 13:47:44;;;;;;;1.00;0.93;;;;;;;;;;5016794;28;20214;-40
2023/04/02 13:50:16;;;;;;;1.60;0.63;;;;;;;;;;5023078;28;20230;-38
2023/04/02 13:52:44;;;;;;;0.60;0.60;;;;;;;;;;5030055;28;20873;-40
2023/04/02 13:55:12;;;;;;;0.67;0.67;;;;;;;;;;5024288;28;20291;-40
2023/04/02 13:57:39;;;;;;;0.80;0.80;;;;;;;;;;5017314;28;20265;-37
2023/04/02 14:00:07;;;;;;;1.17;1.07;;;;;;;;;;5011980;28;20642;-40
2023/04/02 14:02:34;;;;;;;1.50;0.60;;;;;;;;;;5019052;28;20636;-36
2023/04/02 14:05:06;;;;;;;1.30;1.20;;;;;;;;;;5016965;28;20666;-36
2023/04/02 14:07:43;;;;;;;0.73;0.73;;;;;;;;;;5028248;28;20675;-44
2023/04/02 14:10:18;;;;;;;1.07;0.60;;;;;;;;;;5017929;28;20627;-42
2023/04/02 14:12:52;;;;;;;0.53;0.53;;;;;;;;;;5016275;28;20615;-40
2023/04/02 14:15:26;;;;;;;0.50;0.50;;;;;;;;;;5019507;28;20206;-41
2023/04/02 14:18:08;;;;;;;0.60;0.60;;;;;;;;;;5018097;28;20191;-40
2023/04/02 14:20:38;;;;;;;0.90;0.90;;;;;;;;;;5009008;28;20195;-42
2023/04/02 14:23:16;;;;;;;1.60;0.60;;;;;;;;;;5009341;28;20249;-41
2023/04/02 14:25:46;;;;;;;0.70;0.70;;;;;;;;;;5013190;28;20203;-40
2023/04/02 14:28:21;;;;;;;1.07;0.70;;;;;;;;;;5012909;28;20237;-40
2023/04/02 14:30:52;;;;;;;0.73;0.53;;;;;;;;;;5017174;28;20197;-38
2023/04/02 14:33:25;;;;;;;0.50;0.50;;;;;;;;;;5027874;28;20222;-44
2023/04/02 14:35:55;;;;;;;0.60;0.60;;;;;;;;;;5017777;28;20632;-46
2023/04/02 14:38:26;;;;;;;0.47;0.47;;;;;;;;;;5024828;28;20198;-42
2023/04/02 14:40:57;;;;;;;0.73;0.70;;;;;;;;;;5020497;28;20205;-41
2023/04/02 14:43:25;;;;;;;0.50;0.50;;;;;;;;;;5019407;28;20226;-41
2023/04/02 14:45:57;;;;;;;0.40;0.40;;;;;;;;;;5021334;28;20293;-40
2023/04/02 14:48:31;;;;;;;0.40;0.40;;;;;;;;;;5009354;28;20211;-42
2023/04/02 14:51:00;;;;;;;0.40;0.40;;;;;;;;;;5021702;28;20302;-42
2023/04/02 14:53:32;;;;;;;0.30;0.30;;;;;;;;;;5024039;28;20222;-38
2023/04/02 14:56:02;;;;;;;0.27;0.27;;;;;;;;;;5023901;28;20203;-43
2023/04/02 14:58:31;;;;;;;0.60;0.57;;;;;;;;;;5029236;28;20476;-41
2023/04/02 15:01:00;;;;;;;0.40;0.40;;;;;;;;;;5027535;28;20222;-41
2023/04/02 15:03:29;;;;;;;0.50;0.50;;;;;;;;;;5022121;28;20257;-40
2023/04/02 15:05:58;;;;;;;0.50;0.50;;;;;;;;;;5019428;28;20217;-41
2023/04/02 15:08:27;;;;;;;0.50;0.50;;;;;;;;;;5019641;28;20207;-44
2023/04/02 15:10:59;;;;;;;0.60;0.60;;;;;;;;;;5025925;28;20276;-40
2023/04/02 15:13:29;;;;;;;1.00;0.80;;;;;;;;;;5032136;28;20245;-40
2023/04/02 15:15:58;;;;;;;0.20;0.20;;;;;;;;;;5013413;28;20207;-41
2023/04/02 15:18:25;;;;;;;0.70;0.70;;;;;;;;;;5017566;28;20208;-43
2023/04/02 15:20:58;;;;;;;0.80;0.80;;;;;;;;;;5025059;28;20222;-35
2023/04/02 15:23:31;;;;;;;0.70;0.70;;;;;;;;;;5016022;28;20281;-41
2023/04/02 15:26:07;;;;;;;0.93;0.90;;;;;;;;;;5017244;28;20281;-41
2023/04/02 15:28:37;;;;;;;1.30;1.20;;;;;;;;;;5023339;28;20670;-36
2023/04/02 15:31:06;;;;;;;0.63;0.63;;;;;;;;;;5023297;28;20206;-39
2023/04/02 15:33:44;;;;;;;0.90;0.70;;;;;;;;;;5027423;28;20865;-38
2023/04/02 15:36:30;;;;;;;0.90;0.90;;;;;;;;;;5026089;28;20612;-43
2023/04/02 15:39:02;;;;;;;2.00;0.80;;;;;;;;;;5017714;28;20210;-44
2023/04/02 15:41:32;;;;;;;2.70;0.90;;;;;;;;;;5029761;28;20201;-42
2023/04/02 15:44:06;;;;;;;11.70;7.13;;;;;;;;;;5028022;28;20317;-39
2023/04/02 15:46:38;;;;;;;1.73;1.60;;;;;;;;;;5024744;28;20623;-40
2023/04/02 15:49:19;;;;;;;20.77;10.83;;;;;;;;;;5022392;28;20215;-41
2023/04/02 15:51:57;;;;;;;3.17;2.63;;;;;;;;;;5023266;28;20210;-38
2023/04/02 15:54:29;;;;;;;0.80;0.80;;;;;;;;;;5029462;28;20215;-43
2023/04/02 15:57:04;;;;;;;1.60;1.50;;;;;;;;;;5032764;28;20214;-43
2023/04/02 15:59:52;;;;;;;1.40;1.30;;;;;;;;;;5012780;28;20206;-39
2023/04/02 16:02:33;;;;;;;1.27;1.17;;;;;;;;;;5020413;28;20215;-41
2023/04/02 16:05:03;;;;;;;1.83;1.73;;;;;;;;;;5020805;28;20230;-42
2023/04/02 16:07:45;;;;;;;1.40;1.30;;;;;;;;;;5019563;28;20203;-41
2023/04/02 16:10:19;;;;;;;1.87;1.43;;;;;;;;;;5015879;28;20206;-43
2023/04/02 16:12:51;;;;;;;1.50;1.40;;;;;;;;;;5019671;28;20222;-43
2023/04/02 16:15:27;;;;;;;1.07;1.07;;;;;;;;;;5016402;28;20195;-41
2023/04/02 16:17:55;;;;;;;0.90;0.90;;;;;;;;;;5018126;28;20794;-43
2023/04/02 16:20:24;;;;;;;1.00;1.00;;;;;;;;;;5018036;28;20202;-40
2023/04/02 16:22:55;;;;;;;1.47;1.33;;;;;;;;;;5028497;28;20250;-40
2023/04/02 16:25:24;;;;;;;1.10;1.10;;;;;;;;;;5023017;28;20222;-38
2023/04/02 16:27:55;;;;;;;1.20;1.10;;;;;;;;;;5029057;28;20213;-38
2023/04/02 16:30:30;;;;;;;1.13;1.03;;;;;;;;;;5026669;28;20207;-44
2023/04/02 16:33:03;;;;;;;1.10;1.10;;;;;;;;;;5018267;28;20230;-42
2023/04/02 16:35:33;;;;;;;1.00;0.90;;;;;;;;;;5018891;28;20549;-45
2023/04/02 16:38:10;;;;;;;0.90;0.90;;;;;;;;;;5028373;28;20217;-40
2023/04/02 16:40:41;;;;;;;1.03;0.70;;;;;;;;;;5024038;28;20245;-40
2023/04/02 16:43:19;;;;;;;1.00;1.00;;;;;;;;;;5023728;28;20234;-45
2023/04/02 16:45:50;;;;;;;0.80;0.80;;;;;;;;;;5013559;28;20258;-41
2023/04/02 16:48:22;;;;;;;0.90;0.90;;;;;;;;;;5018769;28;20206;-39
2023/04/02 16:50:56;;;;;;;0.93;0.93;;;;;;;;;;5028346;28;20230;-41
2023/04/02 16:53:28;;;;;;;1.70;1.10;;;;;;;;;;5022260;28;20225;-40
2023/04/02 16:56:03;;;;;;;99.20;52.33;;;;;;;;;;5020655;28;20649;-44
2023/04/02 16:58:36;;;;;;;1.27;1.17;;;;;;;;;;5030177;28;20686;-42
2023/04/02 17:01:10;;;;;;;1.50;1.20;;;;;;;;;;5026205;28;20634;-41
2023/04/02 17:03:55;;;;;;;11.70;7.77;;;;;;;;;;5017184;28;20439;-38
2023/04/02 17:06:28;;;;;;;2.57;2.00;;;;;;;;;;5020147;28;20214;-42
2023/04/02 17:09:02;;;;;;;2.17;1.83;;;;;;;;;;5026577;28;20211;-41
2023/04/02 17:11:33;;;;;;;3.93;2.10;;;;;;;;;;5019892;28;20211;-41
2023/04/02 17:14:05;;;;;;;1.83;1.73;;;;;;;;;;5025012;28;20755;-42
2023/04/02 17:16:36;;;;;;;2.43;2.10;;;;;;;;;;5016388;28;20553;-43
2023/04/02 17:19:08;;;;;;;1.80;1.70;;;;;;;;;;5016658;28;20688;-42
2023/04/02 17:21:36;;;;;;;1.20;1.20;;;;;;;;;;5017468;28;20313;-37
2023/04/02 17:24:07;;;;;;;1.60;1.50;;;;;;;;;;5019892;28;20219;-42
2023/04/02 17:26:35;;;;;;;1.37;1.27;;;;;;;;;;5023290;28;20199;-42
2023/04/02 17:29:07;;;;;;;1.70;1.60;;;;;;;;;;5027120;28;20579;-40
2023/04/02 17:31:36;;;;;;;5.67;3.67;;;;;;;;;;5019970;28;20199;-44
2023/04/02 17:34:10;;;;;;;1.13;1.13;;;;;;;;;;5013952;28;20231;-42
2023/04/02 17:36:41;;;;;;;1.00;1.00;;;;;;;;;;5022798;28;20204;-44
2023/04/02 17:39:11;;;;;;;1.20;1.20;;;;;;;;;;5014215;28;20213;-44
2023/04/02 17:41:40;;;;;;;1.27;1.27;;;;;;;;;;5024914;28;20198;-41
2023/04/02 17:44:17;;;;;;;1.10;1.00;;;;;;;;;;5023121;28;20329;-37
2023/04/02 17:46:48;;;;;;;1.20;1.10;;;;;;;;;;5015671;28;20447;-37
2023/04/02 17:49:21;;;;;;;1.03;1.03;;;;;;;;;;5017636;28;20797;-40
2023/04/02 17:52:10;;;;;;;1.00;1.00;;;;;;;;;;5027651;28;20661;-40
2023/04/02 17:54:42;;;;;;;1.53;1.43;;;;;;;;;;5024968;28;20243;-37
2023/04/02 17:57:21;;;;;;;1.00;1.00;;;;;;;;;;5029754;28;20252;-44
2023/04/02 17:59:56;;;;;;;1.40;1.40;;;;;;;;;;5025304;28;20216;-44
2023/04/02 18:02:30;;;;;;;2.17;1.23;;;;;;;;;;5021307;28;20228;-40
2023/04/02 18:05:02;;;;;;;2.63;1.63;;;;;;;;;;5025393;28;20705;-41
2023/04/02 18:07:34;;;;;;;1.47;1.40;;;;;;;;;;5021342;28;20209;-42
2023/04/02 18:10:11;;;;;;;1.87;1.77;;;;;;;;;;5021612;28;20206;-37
2023/04/02 18:12:45;;;;;;;1.03;1.03;;;;;;;;;;5025826;28;20226;-43
2023/04/02 18:15:25;;;;;;;1.80;1.70;;;;;;;;;;5017131;28;20292;-40
2023/04/02 18:17:54;;;;;;;1.87;1.77;;;;;;;;;;5019274;28;20210;-38
2023/04/02 18:20:26;;;;;;;8.60;7.23;;;;;;;;;;5023573;28;20202;-39
2023/04/02 18:22:55;;;;;;;6.67;4.57;;;;;;;;;;5023064;28;20704;-38
2023/04/02 18:28:13;;;;;;;1.90;1.80;;;;;;;;;;5116757;23;20260;-35
2023/04/02 18:30:47;;;;;;;3.60;1.83;;;;;;;;;;5039213;28;20557;-35
2023/04/02 18:33:22;;;;;;;2.10;1.90;;;;;;;;;;5043674;28;20249;-33
2023/04/02 18:35:53;;;;;;;1.47;1.37;;;;;;;;;;5035007;28;20202;-33
2023/04/02 18:38:24;;;;;;;2.10;1.90;;;;;;;;;;5024290;28;20221;-36
2023/04/02 18:41:00;;;;;;;3.00;1.97;;;;;;;;;;5019801;28;20234;-36
2023/04/02 18:43:36;;;;;;;1.80;1.70;;;;;;;;;;5026007;28;20507;-34
2023/04/02 18:46:12;;;;;;;1.47;1.37;;;;;;;;;;5020189;28;20229;-34
2023/04/02 18:48:47;;;;;;;2.50;1.80;;;;;;;;;;5019683;28;20603;-33
2023/04/02 18:51:16;;;;;;;2.23;2.03;;;;;;;;;;5027098;28;20211;-34
2023/04/02 18:53:43;;;;;;;1.67;1.53;;;;;;;;;;5025014;28;20791;-36
2023/04/02 18:56:13;;;;;;;2.07;1.93;;;;;;;;;;5035403;28;20204;-34
2023/04/02 18:58:43;;;;;;;3.33;3.03;;;;;;;;;;5034043;28;20210;-33
2023/04/02 19:01:14;;;;;;;2.00;1.90;;;;;;;;;;5024059;28;20258;-34
2023/04/02 19:03:43;;;;;;;2.53;1.87;;;;;;;;;;5024524;28;20230;-33
2023/04/02 19:06:18;;;;;;;2.83;2.50;;;;;;;;;;5032954;28;20223;-33
2023/04/02 19:08:49;;;;;;;1.70;1.60;;;;;;;;;;5027713;28;20219;-35
2023/04/02 19:11:18;;;;;;;1.70;1.60;;;;;;;;;;5027633;28;20666;-32
2023/04/02 19:13:47;;;;;;;2.23;2.03;;;;;;;;;;5051709;28;20240;-34
2023/04/02 19:16:22;;;;;;;3.33;2.13;;;;;;;;;;5037106;28;20210;-34
2023/04/02 19:18:56;;;;;;;2.43;2.00;;;;;;;;;;5027130;28;20214;-33
2023/04/02 19:21:27;;;;;;;1.70;1.60;;;;;;;;;;5026783;28;20203;-35
2023/04/02 19:24:01;;;;;;;2.77;2.17;;;;;;;;;;5043333;28;20699;-33
2023/04/02 19:26:36;;;;;;;2.20;2.00;;;;;;;;;;5027187;28;20702;-35
2023/04/02 19:29:09;;;;;;;2.50;2.00;;;;;;;;;;5029178;28;20557;-34
2023/04/02 19:31:44;;;;;;;2.17;1.97;;;;;;;;;;5021608;28;20581;-36